createdAt,value
2017-12-31T00:00:32.975Z,0
2017-12-31T00:01:33.563Z,0
2017-12-31T00:02:34.152Z,0
2017-12-31T00:03:34.727Z,0
2017-12-31T00:04:35.302Z,0
2017-12-31T00:05:35.874Z,0
2017-12-31T00:06:36.448Z,0
2017-12-31T00:07:37.024Z,0
2017-12-31T00:08:37.597Z,0
2017-12-31T00:09:38.172Z,0
2017-12-31T00:10:38.759Z,0
2017-12-31T00:11:39.332Z,0
2017-12-31T00:12:39.905Z,0
2017-12-31T00:13:40.491Z,0
2017-12-31T00:14:41.065Z,0
2017-12-31T00:15:41.638Z,0
2017-12-31T00:16:42.226Z,0
2017-12-31T00:17:42.800Z,0
2017-12-31T00:18:43.374Z,0
2017-12-31T00:19:43.949Z,0
2017-12-31T00:20:44.523Z,0
2017-12-31T00:21:45.098Z,0
2017-12-31T00:22:45.672Z,0
2017-12-31T00:23:46.247Z,0
2017-12-31T00:24:46.834Z,0
2017-12-31T00:25:47.421Z,0
2017-12-31T00:26:47.996Z,0
2017-12-31T00:27:48.569Z,0
2017-12-31T00:28:49.144Z,0
2017-12-31T00:29:49.716Z,0
2017-12-31T00:30:50.303Z,0
2017-12-31T00:31:50.890Z,0
2017-12-31T00:32:51.464Z,0
2017-12-31T00:33:52.038Z,0
2017-12-31T00:34:52.614Z,0
2017-12-31T00:35:53.188Z,0
2017-12-31T00:36:53.761Z,0
2017-12-31T00:37:54.348Z,0
2017-12-31T00:38:54.924Z,0
2017-12-31T00:39:55.496Z,0
2017-12-31T00:40:56.070Z,0
2017-12-31T00:41:56.644Z,0
2017-12-31T00:42:57.218Z,0
2017-12-31T00:43:57.792Z,0
2017-12-31T00:44:58.366Z,0
2017-12-31T00:45:58.939Z,0
2017-12-31T00:46:59.515Z,0
2017-12-31T00:48:00.088Z,0
2017-12-31T00:49:00.660Z,0
2017-12-31T00:50:01.237Z,0
2017-12-31T00:51:01.820Z,0
2017-12-31T00:52:02.396Z,0
2017-12-31T00:53:02.971Z,0
2017-12-31T00:54:03.547Z,0
2017-12-31T00:55:04.120Z,0
2017-12-31T00:56:04.709Z,0
2017-12-31T00:57:05.280Z,0
2017-12-31T00:58:05.853Z,0
2017-12-31T00:59:06.425Z,0
2017-12-31T01:00:06.998Z,0
2017-12-31T01:01:07.576Z,0
2017-12-31T01:02:08.148Z,0
2017-12-31T01:03:08.734Z,0
2017-12-31T01:04:09.308Z,0
2017-12-31T01:05:09.880Z,0
2017-12-31T01:06:10.454Z,0
2017-12-31T01:07:11.026Z,0
2017-12-31T01:08:11.600Z,0
2017-12-31T01:09:12.176Z,0
2017-12-31T01:10:12.749Z,0
2017-12-31T01:11:13.322Z,0
2017-12-31T01:12:13.896Z,0
2017-12-31T01:13:14.469Z,0
2017-12-31T01:14:15.044Z,0
2017-12-31T01:15:15.617Z,0
2017-12-31T01:16:16.190Z,0
2017-12-31T01:17:16.768Z,0
2017-12-31T01:18:17.339Z,0
2017-12-31T01:19:17.915Z,0
2017-12-31T01:20:18.493Z,0
2017-12-31T01:21:19.077Z,0
2017-12-31T01:22:19.650Z,0
2017-12-31T01:23:20.222Z,0
2017-12-31T01:24:20.800Z,0
2017-12-31T01:25:21.372Z,0
2017-12-31T01:26:21.945Z,0
2017-12-31T01:27:22.520Z,0
2017-12-31T01:28:23.093Z,0
2017-12-31T01:29:23.666Z,0
2017-12-31T01:30:24.261Z,0
2017-12-31T01:31:24.844Z,0
2017-12-31T01:32:25.413Z,0
2017-12-31T01:33:25.987Z,0
2017-12-31T01:34:26.562Z,0
2017-12-31T01:35:27.136Z,0
2017-12-31T01:36:27.708Z,0
2017-12-31T01:37:28.281Z,0
2017-12-31T01:38:28.856Z,0
2017-12-31T01:39:29.443Z,0
2017-12-31T01:40:30.019Z,0
2017-12-31T01:41:30.593Z,0
2017-12-31T01:42:31.166Z,0
2017-12-31T01:43:31.740Z,0
2017-12-31T01:44:32.314Z,0
2017-12-31T01:45:32.889Z,0
2017-12-31T01:46:33.462Z,0
2017-12-31T01:47:34.036Z,0
2017-12-31T01:48:34.609Z,0
2017-12-31T01:49:35.183Z,0
2017-12-31T01:50:35.758Z,0
2017-12-31T01:51:36.331Z,0
2017-12-31T01:52:36.904Z,0
2017-12-31T01:53:37.477Z,0
2017-12-31T01:54:38.063Z,0
2017-12-31T01:55:38.637Z,0
2017-12-31T01:56:39.208Z,0
2017-12-31T01:57:39.780Z,0
2017-12-31T01:58:40.356Z,0
2017-12-31T01:59:40.933Z,0
2017-12-31T02:00:41.502Z,0
2017-12-31T02:01:42.074Z,0
2017-12-31T02:02:42.661Z,0
2017-12-31T02:03:43.233Z,0
2017-12-31T02:04:43.808Z,0
2017-12-31T02:05:44.381Z,0
2017-12-31T02:06:44.955Z,0
2017-12-31T02:07:45.526Z,0
2017-12-31T02:08:46.101Z,0
2017-12-31T02:09:46.674Z,0
2017-12-31T02:10:47.246Z,0
2017-12-31T02:11:47.822Z,0
2017-12-31T02:12:48.395Z,0
2017-12-31T02:13:48.969Z,0
2017-12-31T02:14:49.541Z,0
2017-12-31T02:15:50.115Z,0
2017-12-31T02:16:50.689Z,0
2017-12-31T02:17:51.263Z,0
2017-12-31T02:18:51.836Z,0
2017-12-31T02:19:52.408Z,0
2017-12-31T02:20:52.983Z,0
2017-12-31T02:21:53.558Z,0
2017-12-31T02:22:54.131Z,0
2017-12-31T02:23:54.704Z,0
2017-12-31T02:24:55.280Z,0
2017-12-31T02:25:55.854Z,0
2017-12-31T02:26:56.427Z,0
2017-12-31T02:27:57.001Z,0
2017-12-31T02:28:57.573Z,0
2017-12-31T02:29:58.147Z,0
2017-12-31T02:30:58.735Z,0
2017-12-31T02:31:59.309Z,0
2017-12-31T02:32:59.883Z,0
2017-12-31T02:34:00.456Z,0
2017-12-31T02:35:01.030Z,0
2017-12-31T02:36:01.603Z,0
2017-12-31T02:37:02.176Z,0
2017-12-31T02:38:02.748Z,0
2017-12-31T02:39:03.321Z,0
2017-12-31T02:40:03.908Z,0
2017-12-31T02:41:04.483Z,0
2017-12-31T02:42:05.055Z,0
2017-12-31T02:43:05.628Z,0
2017-12-31T02:44:06.202Z,0
2017-12-31T02:45:06.788Z,0
2017-12-31T02:46:07.361Z,0
2017-12-31T02:47:07.937Z,0
2017-12-31T02:48:08.528Z,0
2017-12-31T02:49:09.114Z,0
2017-12-31T02:50:09.687Z,0
2017-12-31T02:51:10.261Z,0
2017-12-31T02:52:10.833Z,0
2017-12-31T02:53:11.405Z,0
2017-12-31T02:54:11.977Z,0
2017-12-31T02:55:12.551Z,0
2017-12-31T02:56:13.126Z,0
2017-12-31T02:57:13.698Z,0
2017-12-31T02:58:14.272Z,0
2017-12-31T02:59:14.859Z,0
2017-12-31T03:00:15.431Z,0
2017-12-31T03:01:16.004Z,0
2017-12-31T03:02:16.577Z,0
2017-12-31T03:03:17.149Z,0
2017-12-31T03:04:17.723Z,0
2017-12-31T03:05:18.295Z,0
2017-12-31T03:06:18.869Z,0
2017-12-31T03:07:19.441Z,0
2017-12-31T03:08:20.028Z,0
2017-12-31T03:09:20.601Z,0
2017-12-31T03:10:21.176Z,0
2017-12-31T03:11:21.749Z,0
2017-12-31T03:12:22.324Z,0
2017-12-31T03:13:22.897Z,0
2017-12-31T03:14:23.470Z,0
2017-12-31T03:15:24.047Z,0
2017-12-31T03:16:24.633Z,0
2017-12-31T03:17:25.206Z,0
2017-12-31T03:18:25.782Z,0
2017-12-31T03:19:26.354Z,0
2017-12-31T03:20:26.927Z,0
2017-12-31T03:21:27.501Z,0
2017-12-31T03:22:28.074Z,0
2017-12-31T03:23:28.649Z,0
2017-12-31T03:24:29.237Z,0
2017-12-31T03:25:29.812Z,0
2017-12-31T03:26:30.385Z,0
2017-12-31T03:27:30.959Z,0
2017-12-31T03:28:31.533Z,0
2017-12-31T03:29:32.110Z,0
2017-12-31T03:30:32.683Z,0
2017-12-31T03:31:33.257Z,0
2017-12-31T03:32:33.841Z,0
2017-12-31T03:33:34.420Z,0
2017-12-31T03:34:34.994Z,0
2017-12-31T03:35:35.563Z,0
2017-12-31T03:36:36.136Z,0
2017-12-31T03:37:36.710Z,0
2017-12-31T03:38:37.283Z,0
2017-12-31T03:39:37.856Z,0
2017-12-31T03:40:38.431Z,0
2017-12-31T03:41:39.003Z,0
2017-12-31T03:42:39.575Z,0
2017-12-31T03:43:40.149Z,0
2017-12-31T03:44:40.723Z,0
2017-12-31T03:45:41.299Z,0
2017-12-31T03:46:41.873Z,0
2017-12-31T03:47:42.446Z,0
2017-12-31T03:48:43.021Z,0
2017-12-31T03:49:43.594Z,0
2017-12-31T03:50:44.181Z,0
2017-12-31T03:51:44.758Z,0
2017-12-31T03:52:45.331Z,0
2017-12-31T03:53:45.901Z,0
2017-12-31T03:54:46.475Z,0
2017-12-31T03:55:47.050Z,0
2017-12-31T03:56:47.624Z,0
2017-12-31T03:57:48.197Z,0
2017-12-31T03:58:48.772Z,0
2017-12-31T03:59:49.345Z,0
2017-12-31T04:00:49.917Z,0
2017-12-31T04:01:50.493Z,0
2017-12-31T04:02:51.065Z,0
2017-12-31T04:03:51.639Z,0
2017-12-31T04:04:52.212Z,0
2017-12-31T04:05:52.786Z,0
2017-12-31T04:06:53.361Z,0
2017-12-31T04:07:53.934Z,0
2017-12-31T04:08:54.508Z,0
2017-12-31T04:09:55.081Z,0
2017-12-31T04:10:55.653Z,0
2017-12-31T04:11:56.225Z,0
2017-12-31T04:12:56.799Z,0
2017-12-31T04:13:57.387Z,0
2017-12-31T04:14:57.958Z,0
2017-12-31T04:15:58.531Z,0
2017-12-31T04:16:59.106Z,0
2017-12-31T04:17:59.679Z,0
2017-12-31T04:19:00.252Z,0
2017-12-31T04:20:00.829Z,0
2017-12-31T04:21:01.400Z,0
2017-12-31T04:22:01.975Z,0
2017-12-31T04:23:02.561Z,0
2017-12-31T04:24:03.134Z,0
2017-12-31T04:25:03.707Z,0
2017-12-31T04:26:04.279Z,0
2017-12-31T04:27:04.853Z,0
2017-12-31T04:28:05.426Z,0
2017-12-31T04:29:05.999Z,0
2017-12-31T04:30:06.572Z,0
2017-12-31T04:31:07.160Z,0
2017-12-31T04:32:07.731Z,0
2017-12-31T04:33:08.317Z,0
2017-12-31T04:34:08.891Z,0
2017-12-31T04:35:09.461Z,0
2017-12-31T04:36:10.032Z,0
2017-12-31T04:37:10.602Z,0
2017-12-31T04:38:11.175Z,0
2017-12-31T04:39:11.748Z,0
2017-12-31T04:40:12.319Z,0
2017-12-31T04:41:12.893Z,0
2017-12-31T04:42:13.479Z,0
2017-12-31T04:43:14.053Z,0
2017-12-31T04:44:14.628Z,0
2017-12-31T04:45:15.199Z,0
2017-12-31T04:46:15.785Z,0
2017-12-31T04:47:16.357Z,0
2017-12-31T04:48:16.927Z,0
2017-12-31T04:49:17.500Z,0
2017-12-31T04:50:18.071Z,0
2017-12-31T04:51:18.642Z,0
2017-12-31T04:52:19.215Z,0
2017-12-31T04:53:19.787Z,0
2017-12-31T04:54:20.359Z,0
2017-12-31T04:55:20.931Z,0
2017-12-31T04:56:21.503Z,0
2017-12-31T04:57:22.074Z,0
2017-12-31T04:58:22.645Z,0
2017-12-31T04:59:23.217Z,0
2017-12-31T05:00:23.789Z,0
2017-12-31T05:01:24.360Z,0
2017-12-31T05:02:24.945Z,0
2017-12-31T05:03:25.518Z,0
2017-12-31T05:04:26.093Z,0
2017-12-31T05:05:26.664Z,0
2017-12-31T05:06:27.238Z,0
2017-12-31T05:07:27.808Z,0
2017-12-31T05:08:28.394Z,0
2017-12-31T05:09:28.971Z,0
2017-12-31T05:10:29.539Z,0
2017-12-31T05:11:30.110Z,0
2017-12-31T05:12:30.737Z,0
2017-12-31T05:13:31.268Z,0
2017-12-31T05:14:31.840Z,0
2017-12-31T05:15:32.425Z,0
2017-12-31T05:16:32.996Z,0
2017-12-31T05:17:33.567Z,0
2017-12-31T05:18:34.140Z,0
2017-12-31T05:19:34.726Z,0
2017-12-31T05:20:35.298Z,0
2017-12-31T05:21:35.869Z,0
2017-12-31T05:22:36.441Z,0
2017-12-31T05:23:37.026Z,0
2017-12-31T05:24:37.597Z,0
2017-12-31T05:25:38.167Z,0
2017-12-31T05:26:38.743Z,0
2017-12-31T05:27:39.315Z,0
2017-12-31T05:28:39.889Z,0
2017-12-31T05:29:40.461Z,0
2017-12-31T05:30:41.032Z,0
2017-12-31T05:31:41.604Z,0
2017-12-31T05:32:42.176Z,0
2017-12-31T05:33:42.749Z,0
2017-12-31T05:34:43.322Z,0
2017-12-31T05:35:43.896Z,0
2017-12-31T05:36:44.467Z,0
2017-12-31T05:37:45.040Z,0
2017-12-31T05:38:45.610Z,0
2017-12-31T05:39:46.184Z,0
2017-12-31T05:40:46.759Z,0
2017-12-31T05:41:47.330Z,0
2017-12-31T05:42:47.903Z,0
2017-12-31T05:43:48.475Z,0
2017-12-31T05:44:49.060Z,0
2017-12-31T05:45:49.631Z,0
2017-12-31T05:46:50.203Z,0
2017-12-31T05:47:50.774Z,0
2017-12-31T05:48:51.345Z,0
2017-12-31T05:49:51.934Z,0
2017-12-31T05:50:52.504Z,0
2017-12-31T05:51:53.077Z,0
2017-12-31T05:52:53.650Z,0
2017-12-31T05:53:54.223Z,0
2017-12-31T05:54:54.799Z,0
2017-12-31T05:55:55.374Z,0
2017-12-31T05:56:55.939Z,0
2017-12-31T05:57:56.511Z,0
2017-12-31T05:58:57.086Z,0
2017-12-31T05:59:57.658Z,0
2017-12-31T06:00:58.231Z,0
2017-12-31T06:01:58.817Z,0
2017-12-31T06:02:59.388Z,0
2017-12-31T06:03:59.961Z,0
2017-12-31T06:05:00.532Z,0
2017-12-31T06:06:01.106Z,0
2017-12-31T06:07:01.691Z,0
2017-12-31T06:08:02.261Z,0
2017-12-31T06:09:02.833Z,0
2017-12-31T06:10:03.405Z,0
2017-12-31T06:11:03.975Z,0
2017-12-31T06:12:04.546Z,0
2017-12-31T06:13:05.118Z,0
2017-12-31T06:14:05.692Z,0
2017-12-31T06:15:06.267Z,0
2017-12-31T06:16:06.837Z,0
2017-12-31T06:17:07.409Z,0
2017-12-31T06:18:07.982Z,0
2017-12-31T06:19:08.553Z,0
2017-12-31T06:20:09.126Z,0
2017-12-31T06:21:09.699Z,0
2017-12-31T06:22:10.272Z,0
2017-12-31T06:23:10.844Z,0
2017-12-31T06:24:11.415Z,0
2017-12-31T06:25:11.987Z,0
2017-12-31T06:26:12.558Z,0
2017-12-31T06:27:13.132Z,0
2017-12-31T06:28:13.704Z,0
2017-12-31T06:29:14.276Z,0
2017-12-31T06:30:14.850Z,0
2017-12-31T06:31:15.423Z,0
2017-12-31T06:32:15.996Z,0
2017-12-31T06:33:16.582Z,0
2017-12-31T06:34:17.169Z,0
2017-12-31T06:35:17.742Z,0
2017-12-31T06:36:18.315Z,0
2017-12-31T06:37:18.887Z,0
2017-12-31T06:38:19.459Z,0
2017-12-31T06:39:20.033Z,0
2017-12-31T06:40:20.621Z,0
2017-12-31T06:41:21.193Z,0
2017-12-31T06:42:21.768Z,0
2017-12-31T06:43:22.337Z,0
2017-12-31T06:44:22.908Z,0
2017-12-31T06:45:23.477Z,0
2017-12-31T06:46:24.047Z,0
2017-12-31T06:47:24.616Z,0
2017-12-31T06:48:25.188Z,0
2017-12-31T06:49:25.758Z,0
2017-12-31T06:50:26.327Z,0
2017-12-31T06:51:26.912Z,0
2017-12-31T06:52:27.467Z,0
2017-12-31T06:53:28.036Z,0
2017-12-31T06:54:28.609Z,0
2017-12-31T06:55:29.181Z,0
2017-12-31T06:56:29.754Z,0
2017-12-31T06:57:30.329Z,0
2017-12-31T06:58:30.903Z,0
2017-12-31T06:59:31.477Z,0
2017-12-31T07:00:32.050Z,0
2017-12-31T07:01:32.636Z,0
2017-12-31T07:02:33.211Z,0
2017-12-31T07:03:33.784Z,0
2017-12-31T07:04:34.359Z,0
2017-12-31T07:05:34.945Z,0
2017-12-31T07:06:35.520Z,0
2017-12-31T07:07:36.093Z,0
2017-12-31T07:08:36.681Z,0
2017-12-31T07:09:37.267Z,0
2017-12-31T07:10:37.842Z,0
2017-12-31T07:11:38.417Z,0
2017-12-31T07:12:38.991Z,0
2017-12-31T07:13:39.564Z,0
2017-12-31T07:14:40.141Z,0
2017-12-31T07:15:40.713Z,0
2017-12-31T07:16:41.287Z,0
2017-12-31T07:17:41.862Z,0
2017-12-31T07:18:42.438Z,0
2017-12-31T07:19:43.027Z,0
2017-12-31T07:20:43.599Z,0
2017-12-31T07:21:44.171Z,0
2017-12-31T07:22:44.746Z,0
2017-12-31T07:23:45.321Z,0
2017-12-31T07:24:45.896Z,0
2017-12-31T07:25:46.482Z,0
2017-12-31T07:26:47.070Z,0
2017-12-31T07:27:47.644Z,4
2017-12-31T07:28:48.218Z,0
2017-12-31T07:29:48.792Z,4
2017-12-31T07:30:49.368Z,0
2017-12-31T07:31:49.940Z,0
2017-12-31T07:32:50.530Z,4
2017-12-31T07:33:51.103Z,4
2017-12-31T07:34:51.676Z,4
2017-12-31T07:35:52.251Z,0
2017-12-31T07:36:52.825Z,4
2017-12-31T07:37:53.399Z,4
2017-12-31T07:38:53.973Z,4
2017-12-31T07:39:54.548Z,4
2017-12-31T07:40:55.118Z,4
2017-12-31T07:41:55.695Z,4
2017-12-31T07:42:56.268Z,4
2017-12-31T07:43:56.842Z,4
2017-12-31T07:44:57.417Z,4
2017-12-31T07:45:57.991Z,4
2017-12-31T07:46:58.567Z,4
2017-12-31T07:47:59.139Z,4
2017-12-31T07:48:59.714Z,4
2017-12-31T07:50:00.287Z,4
2017-12-31T07:51:00.875Z,4
2017-12-31T07:52:01.448Z,8
2017-12-31T07:53:02.023Z,8
2017-12-31T07:54:02.597Z,4
2017-12-31T07:55:03.172Z,8
2017-12-31T07:56:03.745Z,8
2017-12-31T07:57:04.318Z,8
2017-12-31T07:58:04.891Z,8
2017-12-31T07:59:05.465Z,12
2017-12-31T08:00:06.042Z,16
2017-12-31T08:01:06.630Z,12
2017-12-31T08:02:07.204Z,16
2017-12-31T08:03:07.794Z,16
2017-12-31T08:04:08.369Z,16
2017-12-31T08:05:08.943Z,12
2017-12-31T08:06:09.518Z,16
2017-12-31T08:07:10.096Z,16
2017-12-31T08:08:10.667Z,16
2017-12-31T08:09:11.241Z,16
2017-12-31T08:10:11.828Z,16
2017-12-31T08:11:12.401Z,16
2017-12-31T08:12:12.975Z,16
2017-12-31T08:13:57.746Z,16
2017-12-31T08:14:58.321Z,16
2017-12-31T08:15:58.897Z,16
2017-12-31T08:16:59.471Z,16
2017-12-31T08:18:00.049Z,16
2017-12-31T08:19:00.620Z,16
2017-12-31T08:20:01.195Z,16
2017-12-31T08:21:01.784Z,16
2017-12-31T08:22:02.360Z,16
2017-12-31T08:23:02.935Z,20
2017-12-31T08:24:03.509Z,20
2017-12-31T08:25:04.084Z,24
2017-12-31T08:26:04.659Z,24
2017-12-31T08:27:05.236Z,24
2017-12-31T08:28:05.809Z,20
2017-12-31T08:29:06.383Z,20
2017-12-31T08:30:06.958Z,28
2017-12-31T08:31:07.535Z,28
2017-12-31T08:32:08.110Z,32
2017-12-31T08:33:08.684Z,32
2017-12-31T08:34:09.259Z,28
2017-12-31T08:35:09.835Z,28
2017-12-31T08:36:10.409Z,28
2017-12-31T08:37:10.997Z,24
2017-12-31T08:38:11.571Z,32
2017-12-31T08:39:12.147Z,32
2017-12-31T08:40:12.722Z,40
2017-12-31T08:41:13.296Z,48
2017-12-31T08:42:13.873Z,48
2017-12-31T08:43:14.445Z,48
2017-12-31T08:44:15.023Z,52
2017-12-31T08:45:15.596Z,52
2017-12-31T08:46:16.172Z,52
2017-12-31T08:47:16.747Z,52
2017-12-31T08:48:17.336Z,56
2017-12-31T08:49:17.925Z,56
2017-12-31T08:50:18.499Z,64
2017-12-31T08:51:19.076Z,72
2017-12-31T08:52:19.650Z,76
2017-12-31T08:53:20.224Z,80
2017-12-31T08:54:20.798Z,76
2017-12-31T08:55:21.375Z,68
2017-12-31T08:56:21.963Z,56
2017-12-31T08:57:22.539Z,44
2017-12-31T08:58:23.114Z,48
2017-12-31T08:59:23.692Z,44
2017-12-31T09:00:24.265Z,44
2017-12-31T09:01:24.844Z,40
2017-12-31T09:02:25.428Z,48
2017-12-31T09:03:26.005Z,48
2017-12-31T09:04:26.579Z,52
2017-12-31T09:05:27.156Z,56
2017-12-31T09:06:27.732Z,60
2017-12-31T09:07:28.306Z,64
2017-12-31T09:08:28.883Z,68
2017-12-31T09:09:29.453Z,76
2017-12-31T09:10:30.027Z,76
2017-12-31T09:11:30.604Z,64
2017-12-31T09:12:31.178Z,64
2017-12-31T09:13:31.752Z,64
2017-12-31T09:14:32.328Z,60
2017-12-31T09:15:32.904Z,68
2017-12-31T09:16:33.490Z,64
2017-12-31T09:17:34.066Z,52
2017-12-31T09:18:34.644Z,56
2017-12-31T09:19:35.216Z,64
2017-12-31T09:20:35.792Z,68
2017-12-31T09:21:36.374Z,60
2017-12-31T09:22:36.941Z,48
2017-12-31T09:23:37.514Z,48
2017-12-31T09:24:38.097Z,48
2017-12-31T09:25:38.667Z,48
2017-12-31T09:26:39.243Z,52
2017-12-31T09:27:39.816Z,56
2017-12-31T09:28:40.403Z,56
2017-12-31T09:29:40.977Z,64
2017-12-31T09:30:41.554Z,68
2017-12-31T09:31:42.142Z,72
2017-12-31T09:32:42.731Z,84
2017-12-31T09:33:43.309Z,72
2017-12-31T09:34:43.895Z,64
2017-12-31T09:35:44.470Z,48
2017-12-31T09:36:45.045Z,40
2017-12-31T09:37:45.619Z,40
2017-12-31T09:38:46.193Z,44
2017-12-31T09:39:46.769Z,44
2017-12-31T09:40:47.344Z,56
2017-12-31T09:41:47.923Z,48
2017-12-31T09:42:48.508Z,48
2017-12-31T09:43:49.083Z,48
2017-12-31T09:44:49.718Z,52
2017-12-31T09:45:50.234Z,44
2017-12-31T09:46:50.808Z,44
2017-12-31T09:47:51.382Z,36
2017-12-31T09:48:51.957Z,40
2017-12-31T09:49:52.532Z,40
2017-12-31T09:50:53.108Z,44
2017-12-31T09:51:53.684Z,44
2017-12-31T09:52:54.258Z,48
2017-12-31T09:53:54.847Z,52
2017-12-31T09:54:55.423Z,60
2017-12-31T09:55:55.998Z,56
2017-12-31T09:56:56.586Z,52
2017-12-31T09:57:57.163Z,60
2017-12-31T09:58:57.737Z,56
2017-12-31T09:59:58.312Z,56
2017-12-31T10:00:58.887Z,52
2017-12-31T10:01:59.462Z,52
2017-12-31T10:03:00.037Z,52
2017-12-31T10:04:00.625Z,44
2017-12-31T10:05:01.214Z,48
2017-12-31T10:06:01.788Z,48
2017-12-31T10:07:02.362Z,40
2017-12-31T10:08:02.936Z,40
2017-12-31T10:09:03.513Z,36
2017-12-31T10:10:04.090Z,36
2017-12-31T10:11:04.680Z,40
2017-12-31T10:12:05.254Z,40
2017-12-31T10:13:05.830Z,40
2017-12-31T10:14:06.418Z,40
2017-12-31T10:15:06.995Z,48
2017-12-31T10:16:07.586Z,52
2017-12-31T10:17:08.160Z,52
2017-12-31T10:18:08.737Z,48
2017-12-31T10:19:09.312Z,48
2017-12-31T10:20:09.888Z,52
2017-12-31T10:21:10.464Z,52
2017-12-31T10:22:11.038Z,60
2017-12-31T10:23:11.612Z,64
2017-12-31T10:24:12.188Z,68
2017-12-31T10:25:12.764Z,48
2017-12-31T10:26:13.341Z,40
2017-12-31T10:27:13.915Z,36
2017-12-31T10:28:14.505Z,36
2017-12-31T10:29:15.078Z,36
2017-12-31T10:30:15.656Z,40
2017-12-31T10:31:16.232Z,40
2017-12-31T10:32:16.808Z,40
2017-12-31T10:33:17.387Z,44
2017-12-31T10:34:17.974Z,44
2017-12-31T10:35:18.550Z,48
2017-12-31T10:36:19.126Z,56
2017-12-31T10:37:19.702Z,48
2017-12-31T10:38:20.278Z,56
2017-12-31T10:39:20.855Z,72
2017-12-31T10:40:21.429Z,88
2017-12-31T10:41:22.006Z,104
2017-12-31T10:42:22.590Z,116
2017-12-31T10:43:23.175Z,124
2017-12-31T10:44:23.750Z,128
2017-12-31T10:45:24.327Z,148
2017-12-31T10:46:24.905Z,148
2017-12-31T10:47:25.480Z,128
2017-12-31T10:48:26.058Z,152
2017-12-31T10:49:26.632Z,156
2017-12-31T10:50:27.210Z,196
2017-12-31T10:51:27.787Z,220
2017-12-31T10:52:28.377Z,204
2017-12-31T10:53:28.952Z,168
2017-12-31T10:54:29.529Z,168
2017-12-31T10:55:30.110Z,156
2017-12-31T10:56:30.681Z,156
2017-12-31T10:57:31.272Z,160
2017-12-31T10:58:31.848Z,180
2017-12-31T10:59:32.426Z,196
2017-12-31T11:00:33.003Z,212
2017-12-31T11:01:33.579Z,220
2017-12-31T11:02:34.156Z,212
2017-12-31T11:03:34.733Z,200
2017-12-31T11:04:35.310Z,172
2017-12-31T11:05:35.886Z,188
2017-12-31T11:06:36.462Z,212
2017-12-31T11:07:37.042Z,208
2017-12-31T11:08:37.617Z,208
2017-12-31T11:09:38.194Z,184
2017-12-31T11:10:38.772Z,172
2017-12-31T11:11:39.348Z,164
2017-12-31T11:12:39.924Z,172
2017-12-31T11:13:40.503Z,192
2017-12-31T11:14:41.079Z,196
2017-12-31T11:15:41.669Z,192
2017-12-31T11:16:42.246Z,172
2017-12-31T11:17:42.824Z,152
2017-12-31T11:18:43.401Z,180
2017-12-31T11:19:43.978Z,184
2017-12-31T11:20:44.555Z,188
2017-12-31T11:21:45.132Z,220
2017-12-31T11:22:45.709Z,228
2017-12-31T11:23:46.286Z,244
2017-12-31T11:24:46.864Z,248
2017-12-31T11:25:47.443Z,220
2017-12-31T11:26:48.019Z,204
2017-12-31T11:27:48.599Z,216
2017-12-31T11:28:49.175Z,224
2017-12-31T11:29:49.752Z,252
2017-12-31T11:30:50.331Z,272
2017-12-31T11:31:50.911Z,288
2017-12-31T11:32:51.501Z,344
2017-12-31T11:33:52.078Z,324
2017-12-31T11:34:52.657Z,308
2017-12-31T11:35:53.237Z,264
2017-12-31T11:36:53.814Z,184
2017-12-31T11:37:54.391Z,176
2017-12-31T11:38:54.969Z,152
2017-12-31T11:39:55.561Z,160
2017-12-31T11:40:56.151Z,164
2017-12-31T11:41:56.728Z,164
2017-12-31T11:42:57.304Z,168
2017-12-31T11:43:57.882Z,196
2017-12-31T11:44:58.494Z,200
2017-12-31T11:45:59.034Z,208
2017-12-31T11:46:59.613Z,220
2017-12-31T11:48:00.220Z,272
2017-12-31T11:49:00.768Z,296
2017-12-31T11:50:01.348Z,368
2017-12-31T11:51:01.925Z,320
2017-12-31T11:52:02.502Z,340
2017-12-31T11:53:03.083Z,388
2017-12-31T11:54:03.661Z,336
2017-12-31T11:55:04.253Z,340
2017-12-31T11:56:04.844Z,316
2017-12-31T11:57:05.433Z,348
2017-12-31T11:58:06.012Z,340
2017-12-31T11:59:06.589Z,336
2017-12-31T12:00:07.166Z,332
2017-12-31T12:01:07.744Z,316
2017-12-31T12:02:08.323Z,296
2017-12-31T12:03:08.901Z,308
2017-12-31T12:04:09.480Z,264
2017-12-31T12:05:10.057Z,252
2017-12-31T12:06:10.636Z,260
2017-12-31T12:07:11.214Z,264
2017-12-31T12:08:11.791Z,252
2017-12-31T12:09:12.370Z,252
2017-12-31T12:10:12.950Z,228
2017-12-31T12:11:13.542Z,216
2017-12-31T12:12:14.118Z,212
2017-12-31T12:13:14.696Z,224
2017-12-31T12:14:15.274Z,188
2017-12-31T12:15:15.852Z,164
2017-12-31T12:16:16.430Z,160
2017-12-31T12:17:17.008Z,172
2017-12-31T12:18:17.586Z,172
2017-12-31T12:19:18.177Z,200
2017-12-31T12:20:18.820Z,208
2017-12-31T12:21:19.346Z,200
2017-12-31T12:22:19.925Z,208
2017-12-31T12:23:20.502Z,220
2017-12-31T12:24:21.078Z,220
2017-12-31T12:25:21.657Z,192
2017-12-31T12:26:22.238Z,196
2017-12-31T12:27:22.810Z,212
2017-12-31T12:28:23.388Z,212
2017-12-31T12:29:23.966Z,192
2017-12-31T12:30:24.544Z,192
2017-12-31T12:31:25.126Z,192
2017-12-31T12:32:25.697Z,200
2017-12-31T12:33:26.277Z,196
2017-12-31T12:34:26.852Z,192
2017-12-31T12:35:27.430Z,204
2017-12-31T12:36:28.013Z,200
2017-12-31T12:37:28.587Z,192
2017-12-31T12:38:29.166Z,164
2017-12-31T12:39:29.744Z,164
2017-12-31T12:40:30.320Z,176
2017-12-31T12:41:30.910Z,192
2017-12-31T12:42:31.486Z,208
2017-12-31T12:43:32.066Z,240
2017-12-31T12:44:32.644Z,240
2017-12-31T12:45:33.224Z,276
2017-12-31T12:46:33.801Z,268
2017-12-31T12:47:34.393Z,248
2017-12-31T12:48:34.972Z,240
2017-12-31T12:49:35.548Z,236
2017-12-31T12:50:36.126Z,256
2017-12-31T12:51:36.704Z,264
2017-12-31T12:52:37.281Z,240
2017-12-31T12:53:37.860Z,248
2017-12-31T12:54:38.436Z,216
2017-12-31T12:55:39.014Z,192
2017-12-31T12:56:39.592Z,180
2017-12-31T12:57:40.169Z,176
2017-12-31T12:58:40.747Z,156
2017-12-31T12:59:41.324Z,136
2017-12-31T13:00:41.902Z,124
2017-12-31T13:01:42.493Z,104
2017-12-31T13:02:43.070Z,88
2017-12-31T13:03:43.646Z,88
2017-12-31T13:04:44.222Z,80
2017-12-31T13:05:44.799Z,64
2017-12-31T13:06:45.390Z,60
2017-12-31T13:07:45.967Z,56
2017-12-31T13:08:46.543Z,52
2017-12-31T13:09:47.119Z,52
2017-12-31T13:10:47.697Z,52
2017-12-31T13:11:48.276Z,44
2017-12-31T13:12:48.851Z,44
2017-12-31T13:13:49.426Z,44
2017-12-31T13:14:50.015Z,40
2017-12-31T13:15:50.592Z,36
2017-12-31T13:16:51.169Z,32
2017-12-31T13:17:51.747Z,28
2017-12-31T13:18:52.324Z,32
2017-12-31T13:19:52.900Z,36
2017-12-31T13:20:53.479Z,44
2017-12-31T13:21:54.054Z,44
2017-12-31T13:22:54.630Z,52
2017-12-31T13:23:55.209Z,56
2017-12-31T13:24:55.801Z,64
2017-12-31T13:25:56.377Z,80
2017-12-31T13:26:56.955Z,88
2017-12-31T13:27:57.530Z,76
2017-12-31T13:28:58.106Z,64
2017-12-31T13:29:58.685Z,60
2017-12-31T13:30:59.261Z,64
2017-12-31T13:31:59.838Z,72
2017-12-31T13:33:00.415Z,76
2017-12-31T13:34:00.992Z,76
2017-12-31T13:35:01.567Z,84
2017-12-31T13:36:02.144Z,88
2017-12-31T13:37:02.720Z,88
2017-12-31T13:38:03.300Z,88
2017-12-31T13:39:03.889Z,84
2017-12-31T13:40:04.465Z,72
2017-12-31T13:41:05.041Z,64
2017-12-31T13:42:05.619Z,60
2017-12-31T13:43:06.198Z,64
2017-12-31T13:44:06.772Z,60
2017-12-31T13:45:07.347Z,60
2017-12-31T13:46:07.924Z,64
2017-12-31T13:47:08.515Z,64
2017-12-31T13:48:09.093Z,64
2017-12-31T13:49:09.669Z,56
2017-12-31T13:50:10.246Z,56
2017-12-31T13:51:10.827Z,56
2017-12-31T13:52:11.399Z,52
2017-12-31T13:53:11.994Z,52
2017-12-31T13:54:12.567Z,52
2017-12-31T13:55:13.142Z,52
2017-12-31T13:56:13.719Z,52
2017-12-31T13:57:14.297Z,52
2017-12-31T13:58:14.872Z,48
2017-12-31T13:59:15.449Z,44
2017-12-31T14:00:16.028Z,44
2017-12-31T14:01:16.603Z,40
2017-12-31T14:02:17.179Z,40
2017-12-31T14:03:17.755Z,36
2017-12-31T14:04:18.346Z,36
2017-12-31T14:05:18.923Z,32
2017-12-31T14:06:19.500Z,32
2017-12-31T14:07:20.075Z,32
2017-12-31T14:08:20.651Z,28
2017-12-31T14:09:21.229Z,28
2017-12-31T14:10:21.805Z,24
2017-12-31T14:11:22.383Z,24
2017-12-31T14:12:22.959Z,24
2017-12-31T14:13:23.537Z,28
2017-12-31T14:14:24.114Z,32
2017-12-31T14:15:24.704Z,28
2017-12-31T14:16:25.278Z,32
2017-12-31T14:17:25.857Z,28
2017-12-31T14:18:26.433Z,24
2017-12-31T14:19:27.009Z,24
2017-12-31T14:20:27.586Z,20
2017-12-31T14:21:28.163Z,20
2017-12-31T14:22:28.741Z,16
2017-12-31T14:23:29.321Z,16
2017-12-31T14:24:29.910Z,16
2017-12-31T14:25:30.485Z,16
2017-12-31T14:26:31.061Z,16
2017-12-31T14:27:31.640Z,16
2017-12-31T14:28:32.228Z,12
2017-12-31T14:29:32.805Z,16
2017-12-31T14:30:33.382Z,16
2017-12-31T14:31:33.958Z,20
2017-12-31T14:32:34.534Z,20
2017-12-31T14:33:35.111Z,20
2017-12-31T14:34:35.687Z,20
2017-12-31T14:35:36.263Z,20
2017-12-31T14:36:36.841Z,16